Time;durP1;ratioP1;P1;durP2;ratioP2;P2;SDS_P1;SDS_P2;PMS_P1;PMS_P2;Temp;Humidity;BMP_temperature;BMP_pressure;BME280_temperature;BME280_humidity;BME280_pressure;Samples;Min_cycle;Max_cycle;Signal;HPM_P1;HPM_P2
2022/12/06 00:00:42;;;;;;;;;;;22.10;99.90;;;;;;5055011;28;19913;-64
2022/12/06 00:03:09;;;;;;;;;;;22.30;99.90;;;;;;5053891;28;19913;-66
2022/12/06 00:05:36;;;;;;;;;;;22.60;99.90;;;;;;5054149;28;20316;-65
2022/12/06 00:08:02;;;;;;;;;;;22.60;99.90;;;;;;5053647;28;19913;-68
2022/12/06 00:10:29;;;;;;;;;;;22.60;99.90;;;;;;5054621;28;20058;-66
2022/12/06 00:12:56;;;;;;;;;;;22.60;99.90;;;;;;5053533;28;20417;-69
2022/12/06 00:15:23;;;;;;;;;;;22.70;99.90;;;;;;5053998;28;19998;-66
2022/12/06 00:17:49;;;;;;;;;;;22.70;99.90;;;;;;5054534;28;19912;-67
2022/12/06 00:20:16;;;;;;;;;;;23.00;99.90;;;;;;5053625;28;19966;-69
2022/12/06 00:22:44;;;;;;;;;;;23.20;99.90;;;;;;5053551;28;19920;-70
2022/12/06 00:25:10;;;;;;;;;;;23.10;99.90;;;;;;5054346;28;19962;-70
2022/12/06 00:27:37;;;;;;;;;;;22.80;99.90;;;;;;5053351;28;19920;-68
2022/12/06 00:30:04;;;;;;;;;;;22.90;99.90;;;;;;5053284;28;19978;-67
2022/12/06 00:32:31;;;;;;;;;;;23.10;99.90;;;;;;5054324;28;20027;-69
2022/12/06 00:34:58;;;;;;;;;;;22.80;99.90;;;;;;5053221;28;19916;-67
2022/12/06 00:37:24;;;;;;;;;;;22.80;99.90;;;;;;5052658;28;20385;-68
2022/12/06 00:39:51;;;;;;;;;;;23.00;99.90;;;;;;5054088;28;19909;-67
2022/12/06 00:42:18;;;;;;;;;;;23.00;99.90;;;;;;5053376;28;19912;-69
2022/12/06 00:44:44;;;;;;;;;;;23.00;99.90;;;;;;5053204;28;20272;-69
2022/12/06 00:47:11;;;;;;;;;;;23.00;99.90;;;;;;5053109;28;20375;-67
2022/12/06 00:49:38;;;;;;;;;;;23.40;99.90;;;;;;5053310;28;19967;-69
2022/12/06 00:52:05;;;;;;;;;;;23.80;99.90;;;;;;5052742;28;20334;-65
2022/12/06 00:54:31;;;;;;;;;;;24.30;99.90;;;;;;5053069;28;20059;-68
2022/12/06 00:56:58;;;;;;;;;;;24.00;99.90;;;;;;5053556;28;19921;-67
2022/12/06 00:59:26;;;;;;;;;;;23.90;99.90;;;;;;5052705;28;19912;-66
2022/12/06 01:01:52;;;;;;;;;;;23.70;99.90;;;;;;5052580;28;19913;-64
2022/12/06 01:04:19;;;;;;;;;;;23.70;99.90;;;;;;5053606;28;19927;-67
2022/12/06 01:06:46;;;;;;;;;;;23.80;99.90;;;;;;5052870;28;20001;-66
2022/12/06 01:09:13;;;;;;;;;;;24.20;99.90;;;;;;5053662;28;19916;-66
2022/12/06 01:11:39;;;;;;;;;;;23.80;99.90;;;;;;5052697;28;20049;-65
2022/12/06 01:14:06;;;;;;;;;;;23.60;99.90;;;;;;5052190;28;20006;-67
2022/12/06 01:16:33;;;;;;;;;;;23.30;99.90;;;;;;5051435;28;19920;-64
2022/12/06 01:19:01;;;;;;;;;;;23.40;99.90;;;;;;5052505;28;19913;-67
2022/12/06 01:21:28;;;;;;;;;;;23.70;99.90;;;;;;5053514;28;19916;-65
2022/12/06 01:23:55;;;;;;;;;;;24.40;99.90;;;;;;5052473;28;19999;-69
2022/12/06 01:26:23;;;;;;;;;;;24.70;99.90;;;;;;5053396;28;20003;-66
2022/12/06 01:28:50;;;;;;;;;;;25.00;99.90;;;;;;5052610;28;19917;-65
2022/12/06 01:31:16;;;;;;;;;;;25.20;99.90;;;;;;5053287;28;20413;-63
2022/12/06 01:33:44;;;;;;;;;;;25.50;99.90;;;;;;5052378;28;19928;-65
2022/12/06 01:36:18;;;;;;;;;;;25.40;99.90;;;;;;5052292;28;20003;-63
2022/12/06 01:38:48;;;;;;;;;;;25.00;99.90;;;;;;5053172;28;19916;-63
2022/12/06 01:41:15;;;;;;;;;;;24.60;99.90;;;;;;5052596;28;19966;-63
2022/12/06 01:43:42;;;;;;;;;;;24.50;99.90;;;;;;5053357;28;19998;-68
2022/12/06 01:46:12;;;;;;;;;;;24.60;99.90;;;;;;5051142;28;19913;-68
2022/12/06 01:48:40;;;;;;;;;;;24.40;99.90;;;;;;5052185;28;19935;-65
2022/12/06 01:51:08;;;;;;;;;;;24.30;99.90;;;;;;5052854;28;19920;-64
2022/12/06 01:53:36;;;;;;;;;;;24.00;99.90;;;;;;5052380;28;19985;-64
2022/12/06 01:56:03;;;;;;;;;;;23.70;99.90;;;;;;5052349;28;19909;-63
2022/12/06 01:58:33;;;;;;;;;;;23.40;99.90;;;;;;5052867;28;19913;-63
2022/12/06 02:01:01;;;;;;;;;;;23.40;99.90;;;;;;5052588;28;20339;-63
2022/12/06 02:03:28;;;;;;;;;;;23.50;99.90;;;;;;5052794;28;20260;-63
2022/12/06 02:05:55;;;;;;;;;;;23.60;99.90;;;;;;5052913;28;19941;-65
2022/12/06 02:08:23;;;;;;;;;;;23.60;99.90;;;;;;5052251;28;19916;-67
2022/12/06 02:10:50;;;;;;;;;;;23.40;99.90;;;;;;5051985;28;19970;-62
2022/12/06 02:13:16;;;;;;;;;;;23.30;99.90;;;;;;5051992;28;19908;-64
2022/12/06 02:15:47;;;;;;;;;;;23.30;99.90;;;;;;5051664;28;20398;-66
2022/12/06 02:18:26;;;;;;;;;;;23.30;99.90;;;;;;5053102;28;19913;-63
2022/12/06 02:21:15;;;;;;;;;;;23.20;99.90;;;;;;5051994;28;19920;-65
2022/12/06 02:24:00;;;;;;;;;;;23.30;99.90;;;;;;5042326;28;19966;-67
2022/12/06 02:26:36;;;;;;;;;;;23.50;99.90;;;;;;5051116;28;19913;-63
2022/12/06 02:29:12;;;;;;;;;;;23.40;99.90;;;;;;5052548;28;19909;-64
2022/12/06 02:31:38;;;;;;;;;;;23.40;99.90;;;;;;5051746;28;19927;-64
2022/12/06 02:34:12;;;;;;;;;;;23.50;99.90;;;;;;5052760;28;19908;-64
2022/12/06 02:36:42;;;;;;;;;;;23.30;99.90;;;;;;5050954;28;19971;-63
2022/12/06 02:39:11;;;;;;;;;;;23.40;99.90;;;;;;5052625;28;19909;-66
2022/12/06 02:41:47;;;;;;;;;;;23.40;99.90;;;;;;5035346;28;20005;-65
2022/12/06 02:44:21;;;;;;;;;;;23.40;99.90;;;;;;5052603;28;19915;-63
2022/12/06 02:46:48;;;;;;;;;;;23.20;99.90;;;;;;5051453;28;19999;-63
2022/12/06 02:49:15;;;;;;;;;;;23.30;99.90;;;;;;5052630;28;19916;-66
2022/12/06 02:51:42;;;;;;;;;;;23.10;99.90;;;;;;5051698;28;19932;-63
2022/12/06 02:54:09;;;;;;;;;;;23.20;99.90;;;;;;5051580;28;20364;-62
2022/12/06 02:56:36;;;;;;;;;;;23.20;99.90;;;;;;5032378;28;19917;-65
2022/12/06 02:59:04;;;;;;;;;;;23.30;99.90;;;;;;5032466;28;19959;-62
2022/12/06 03:01:36;;;;;;;;;;;23.20;99.90;;;;;;5052200;28;19916;-62
2022/12/06 03:04:06;;;;;;;;;;;23.20;99.90;;;;;;5056184;28;19909;-63
2022/12/06 03:06:51;;;;;;;;;;;23.30;99.90;;;;;;5054606;28;19913;-64
2022/12/06 03:09:26;;;;;;;;;;;23.20;99.90;;;;;;5056153;28;19909;-63
2022/12/06 03:12:15;;;;;;;;;;;23.10;99.90;;;;;;5054921;28;19967;-62
2022/12/06 03:14:53;;;;;;;;;;;23.00;99.90;;;;;;5055763;28;20371;-64
2022/12/06 03:17:20;;;;;;;;;;;22.90;99.90;;;;;;5045821;28;19920;-63
2022/12/06 03:19:50;;;;;;;;;;;22.90;99.90;;;;;;5055166;28;19913;-64
2022/12/06 03:22:25;;;;;;;;;;;23.20;99.90;;;;;;5055652;28;19915;-63
2022/12/06 03:24:52;;;;;;;;;;;23.30;99.90;;;;;;5054695;28;19962;-64
2022/12/06 03:27:19;;;;;;;;;;;23.30;99.90;;;;;;5055693;28;19970;-63
2022/12/06 03:29:57;;;;;;;;;;;23.30;99.90;;;;;;5054668;28;19913;-65
2022/12/06 03:32:25;;;;;;;;;;;23.20;99.90;;;;;;5054518;28;19960;-64
2022/12/06 03:34:53;;;;;;;;;;;23.30;99.90;;;;;;5055240;28;20295;-63
2022/12/06 03:37:22;;;;;;;;;;;23.10;99.90;;;;;;5054632;28;19912;-64
2022/12/06 03:39:57;;;;;;;;;;;22.90;99.90;;;;;;5055497;28;20317;-65
2022/12/06 03:42:24;;;;;;;;;;;22.90;99.90;;;;;;5054753;28;19959;-64
2022/12/06 03:44:51;;;;;;;;;;;22.90;99.90;;;;;;5054862;28;19916;-66
2022/12/06 03:47:22;;;;;;;;;;;22.80;99.90;;;;;;5053991;28;19966;-63
2022/12/06 03:50:00;;;;;;;;;;;22.70;99.90;;;;;;5054903;28;19920;-65
2022/12/06 03:52:28;;;;;;;;;;;22.80;99.90;;;;;;5055136;28;19917;-64
2022/12/06 03:54:55;;;;;;;;;;;22.90;99.90;;;;;;5054048;28;19966;-64
2022/12/06 03:57:21;;;;;;;;;;;22.80;99.90;;;;;;5053951;28;19924;-64
2022/12/06 03:59:48;;;;;;;;;;;22.90;99.90;;;;;;5054656;28;19999;-64
2022/12/06 04:02:15;;;;;;;;;;;22.90;99.90;;;;;;5053816;28;19913;-63
2022/12/06 04:04:41;;;;;;;;;;;23.00;99.90;;;;;;5054887;28;19909;-64
2022/12/06 04:07:09;;;;;;;;;;;23.00;99.90;;;;;;5053749;28;19967;-65
2022/12/06 04:09:51;;;;;;;;;;;22.80;99.90;;;;;;5054671;28;19995;-64
2022/12/06 04:15:04;;;;;;;;;;;22.80;99.90;;;;;;5052981;28;19935;-64
2022/12/06 04:20:15;;;;;;;;;;;22.60;99.90;;;;;;5054486;28;20321;-66
2022/12/06 04:25:26;;;;;;;;;;;22.80;99.90;;;;;;5054076;28;19959;-64
2022/12/06 04:38:52;;;;;;;;;;;22.90;99.90;;;;;;5034565;28;19967;-64
2022/12/06 04:44:03;;;;;;;;;;;22.60;99.90;;;;;;5053284;28;19919;-64
2022/12/06 04:46:30;;;;;;;;;;;22.70;99.90;;;;;;5053115;28;20391;-63
2022/12/06 04:48:57;;;;;;;;;;;22.70;99.90;;;;;;5053753;28;19909;-63
2022/12/06 04:51:24;;;;;;;;;;;22.70;99.90;;;;;;5053095;28;19920;-67
2022/12/06 04:53:50;;;;;;;;;;;22.70;99.90;;;;;;5052947;28;19913;-64
2022/12/06 04:56:17;;;;;;;;;;;22.60;99.90;;;;;;5053772;28;20271;-63
2022/12/06 04:58:44;;;;;;;;;;;22.70;99.90;;;;;;5053101;28;19913;-67
2022/12/06 05:01:11;;;;;;;;;;;22.70;99.90;;;;;;5053798;28;19960;-65
2022/12/06 05:03:37;;;;;;;;;;;22.40;99.90;;;;;;5053016;28;19913;-63
2022/12/06 05:06:04;;;;;;;;;;;22.40;99.90;;;;;;5053000;28;20374;-65
2022/12/06 05:08:32;;;;;;;;;;;22.60;99.90;;;;;;5052196;28;19928;-62
2022/12/06 05:10:58;;;;;;;;;;;22.60;99.90;;;;;;5053401;28;19913;-67
2022/12/06 05:13:25;;;;;;;;;;;22.40;99.90;;;;;;5052669;28;19998;-64
2022/12/06 05:15:53;;;;;;;;;;;22.50;99.90;;;;;;5050206;28;19917;-67
2022/12/06 05:18:20;;;;;;;;;;;22.30;99.90;;;;;;5052459;28;19916;-63
2022/12/06 05:20:47;;;;;;;;;;;22.20;99.90;;;;;;5053116;28;19955;-63
2022/12/06 05:23:14;;;;;;;;;;;22.00;99.90;;;;;;5052754;28;19913;-63
2022/12/06 05:25:40;;;;;;;;;;;22.20;99.90;;;;;;5053130;28;19909;-64
2022/12/06 05:28:08;;;;;;;;;;;22.30;99.90;;;;;;5052565;28;19913;-64
2022/12/06 05:30:35;;;;;;;;;;;22.40;99.90;;;;;;5053226;28;19908;-63
2022/12/06 05:33:02;;;;;;;;;;;22.50;99.90;;;;;;5052087;28;19971;-63
2022/12/06 05:35:28;;;;;;;;;;;22.60;99.90;;;;;;5052384;28;19912;-64
2022/12/06 05:37:55;;;;;;;;;;;22.50;99.90;;;;;;5053344;28;20302;-62
2022/12/06 05:40:22;;;;;;;;;;;22.30;99.90;;;;;;5052323;28;20291;-63
2022/12/06 05:42:48;;;;;;;;;;;22.20;99.90;;;;;;5053122;28;19908;-64
2022/12/06 05:45:15;;;;;;;;;;;22.20;99.90;;;;;;5052257;28;19959;-63
2022/12/06 05:47:42;;;;;;;;;;;22.00;99.90;;;;;;5053115;28;19916;-63
2022/12/06 05:50:09;;;;;;;;;;;22.00;99.90;;;;;;5052215;28;20316;-63
2022/12/06 05:52:35;;;;;;;;;;;22.00;99.90;;;;;;5050341;28;19920;-63
2022/12/06 05:55:04;;;;;;;;;;;22.00;99.90;;;;;;5049861;28;20034;-64
2022/12/06 05:57:30;;;;;;;;;;;21.80;99.90;;;;;;5047902;28;19971;-64
2022/12/06 05:59:57;;;;;;;;;;;21.80;99.90;;;;;;5050793;28;19920;-65
2022/12/06 06:02:24;;;;;;;;;;;21.60;99.90;;;;;;5050080;28;20367;-63
2022/12/06 06:04:51;;;;;;;;;;;21.60;99.90;;;;;;5050125;28;20371;-64
2022/12/06 06:07:18;;;;;;;;;;;21.60;99.90;;;;;;5049486;28;19917;-64
2022/12/06 06:09:45;;;;;;;;;;;21.70;99.90;;;;;;5049802;28;19924;-64
2022/12/06 06:12:12;;;;;;;;;;;21.60;99.90;;;;;;5049351;28;19935;-64
2022/12/06 06:14:39;;;;;;;;;;;21.70;99.90;;;;;;5049021;28;19924;-65
2022/12/06 06:17:06;;;;;;;;;;;21.40;99.90;;;;;;5048376;28;19919;-65
2022/12/06 06:19:32;;;;;;;;;;;21.50;99.90;;;;;;5050232;28;20010;-63
2022/12/06 06:21:59;;;;;;;;;;;21.60;99.90;;;;;;5048704;28;19909;-63
2022/12/06 06:24:26;;;;;;;;;;;21.50;99.90;;;;;;5050563;28;19992;-64
2022/12/06 06:26:53;;;;;;;;;;;21.60;99.90;;;;;;5047969;28;20592;-64
2022/12/06 06:29:19;;;;;;;;;;;21.30;99.90;;;;;;5043069;28;19985;-64
2022/12/06 06:31:46;;;;;;;;;;;21.40;99.90;;;;;;5041040;28;19928;-64
2022/12/06 06:34:12;;;;;;;;;;;21.40;99.90;;;;;;5042499;28;19921;-64
2022/12/06 06:36:39;;;;;;;;;;;21.50;99.90;;;;;;5044026;28;19917;-64
2022/12/06 06:39:06;;;;;;;;;;;21.40;99.90;;;;;;5047094;28;19983;-64
2022/12/06 06:41:32;;;;;;;;;;;21.40;99.90;;;;;;5045442;28;20352;-66
2022/12/06 06:43:59;;;;;;;;;;;21.40;99.90;;;;;;5046793;28;19917;-67
2022/12/06 06:46:26;;;;;;;;;;;21.30;99.90;;;;;;5046855;28;19912;-65
2022/12/06 06:48:52;;;;;;;;;;;21.30;99.90;;;;;;5047613;28;19917;-64
2022/12/06 06:51:19;;;;;;;;;;;21.30;99.90;;;;;;5046687;28;20546;-66
2022/12/06 06:53:46;;;;;;;;;;;21.30;99.90;;;;;;5047496;28;19991;-65
2022/12/06 06:56:12;;;;;;;;;;;21.40;99.90;;;;;;5045907;28;19928;-66
2022/12/06 06:58:39;;;;;;;;;;;21.40;99.90;;;;;;5048197;28;19917;-68
2022/12/06 07:01:06;;;;;;;;;;;21.30;99.90;;;;;;5048640;28;19971;-64
2022/12/06 07:03:33;;;;;;;;;;;21.30;99.90;;;;;;5051020;28;20062;-64
2022/12/06 07:06:01;;;;;;;;;;;21.20;99.90;;;;;;5050451;28;19978;-64
2022/12/06 07:08:32;;;;;;;;;;;21.10;99.90;;;;;;5050074;28;20270;-65
2022/12/06 07:10:58;;;;;;;;;;;21.20;99.90;;;;;;5048153;28;19920;-64
2022/12/06 07:13:26;;;;;;;;;;;21.20;99.90;;;;;;5049818;28;19913;-64
2022/12/06 07:15:53;;;;;;;;;;;21.20;99.90;;;;;;5047544;28;19924;-65
2022/12/06 07:18:20;;;;;;;;;;;21.20;99.90;;;;;;5048393;28;19956;-64
2022/12/06 07:20:47;;;;;;;;;;;21.10;99.90;;;;;;5048643;28;19924;-65
2022/12/06 07:23:14;;;;;;;;;;;21.10;99.90;;;;;;5050015;28;19946;-65
2022/12/06 07:25:41;;;;;;;;;;;21.10;99.90;;;;;;5051015;28;19921;-64
2022/12/06 07:28:08;;;;;;;;;;;21.00;99.90;;;;;;5052448;28;19954;-65
2022/12/06 07:30:34;;;;;;;;;;;20.90;99.90;;;;;;5056312;28;19913;-65
2022/12/06 07:33:01;;;;;;;;;;;20.90;99.90;;;;;;5058014;28;19959;-63
2022/12/06 07:35:28;;;;;;;;;;;20.80;99.90;;;;;;5056140;28;19916;-64
2022/12/06 07:37:54;;;;;;;;;;;20.70;99.90;;;;;;5055389;28;19913;-64
2022/12/06 07:40:21;;;;;;;;;;;20.80;99.90;;;;;;5056230;28;19956;-64
2022/12/06 07:45:32;;;;;;;;;;;20.80;99.90;;;;;;5058604;28;20012;-62
2022/12/06 07:47:59;;;;;;;;;;;20.80;99.90;;;;;;5057931;28;20295;-64
2022/12/06 07:50:26;;;;;;;;;;;20.80;99.90;;;;;;5058920;28;20333;-63
2022/12/06 07:52:52;;;;;;;;;;;20.70;99.90;;;;;;5059739;28;19984;-64
2022/12/06 07:55:19;;;;;;;;;;;20.70;99.90;;;;;;5059019;28;20298;-63
2022/12/06 07:57:46;;;;;;;;;;;20.70;99.90;;;;;;5056044;28;19924;-63
2022/12/06 08:00:14;;;;;;;;;;;20.70;99.90;;;;;;5052929;28;19970;-65
2022/12/06 08:02:41;;;;;;;;;;;20.70;99.90;;;;;;5051383;28;20031;-63
2022/12/06 08:05:08;;;;;;;;;;;20.70;99.90;;;;;;5055847;28;19917;-65
2022/12/06 08:07:35;;;;;;;;;;;20.50;99.90;;;;;;5054813;28;19917;-66
2022/12/06 08:10:02;;;;;;;;;;;20.60;99.90;;;;;;5056512;28;19950;-64
2022/12/06 08:12:30;;;;;;;;;;;20.50;99.90;;;;;;5051470;28;19924;-63
2022/12/06 08:14:57;;;;;;;;;;;20.50;99.90;;;;;;5050818;28;20394;-65
2022/12/06 08:17:24;;;;;;;;;;;20.50;99.90;;;;;;5054508;28;20306;-64
2022/12/06 08:19:51;;;;;;;;;;;20.50;99.90;;;;;;5052253;28;20366;-68
2022/12/06 08:22:18;;;;;;;;;;;20.50;99.90;;;;;;5054749;28;20074;-69
2022/12/06 08:24:44;;;;;;;;;;;20.40;99.90;;;;;;5049522;28;20862;-65
2022/12/06 08:27:11;;;;;;;;;;;20.40;99.90;;;;;;5052245;28;20003;-66
2022/12/06 08:29:38;;;;;;;;;;;20.40;99.90;;;;;;5055322;28;19913;-65
2022/12/06 08:32:04;;;;;;;;;;;20.30;99.90;;;;;;5057812;28;19928;-64
2022/12/06 08:34:31;;;;;;;;;;;20.30;99.90;;;;;;5051472;28;19913;-63
2022/12/06 08:36:58;;;;;;;;;;;20.30;99.90;;;;;;5046041;28;19923;-63
2022/12/06 08:39:25;;;;;;;;;;;20.30;99.90;;;;;;5045783;28;20018;-64
2022/12/06 08:41:56;;;;;;;;;;;20.30;99.90;;;;;;5045020;28;19920;-65
2022/12/06 08:44:24;;;;;;;;;;;20.30;99.90;;;;;;5046398;28;19912;-64
2022/12/06 08:46:52;;;;;;;;;;;20.20;99.90;;;;;;5045042;28;19918;-65
2022/12/06 08:49:19;;;;;;;;;;;20.10;99.90;;;;;;5046192;28;19917;-66
2022/12/06 08:51:46;;;;;;;;;;;20.20;99.90;;;;;;5046916;28;19920;-65
2022/12/06 08:54:14;;;;;;;;;;;20.20;99.90;;;;;;5045364;28;19921;-66
2022/12/06 08:56:41;;;;;;;;;;;20.20;99.90;;;;;;5052229;28;19920;-65
2022/12/06 08:59:07;;;;;;;;;;;20.20;99.90;;;;;;5053835;28;19909;-66
2022/12/06 09:01:34;;;;;;;;;;;20.20;99.90;;;;;;5054741;28;19916;-68
2022/12/06 09:04:02;;;;;;;;;;;20.10;99.90;;;;;;5054379;28;19930;-68
2022/12/06 09:06:29;;;;;;;;;;;20.10;99.90;;;;;;5053166;28;19948;-70
2022/12/06 09:08:57;;;;;;;;;;;20.10;99.90;;;;;;5054472;28;19915;-70
2022/12/06 09:11:25;;;;;;;;;;;20.00;99.90;;;;;;5053109;28;20355;-68
2022/12/06 09:13:51;;;;;;;;;;;20.00;99.90;;;;;;5053952;28;19909;-69
2022/12/06 09:16:20;;;;;;;;;;;19.80;99.90;;;;;;5052845;28;19909;-65
2022/12/06 09:18:47;;;;;;;;;;;19.90;99.90;;;;;;5051146;28;19913;-65
2022/12/06 09:21:19;;;;;;;;;;;19.90;99.90;;;;;;5048925;28;20421;-65
2022/12/06 09:23:45;;;;;;;;;;;19.80;99.90;;;;;;5041648;28;19913;-64
2022/12/06 09:26:12;;;;;;;;;;;19.80;99.90;;;;;;5030468;28;19921;-64
2022/12/06 09:28:40;;;;;;;;;;;19.80;99.90;;;;;;5036940;28;19913;-65
2022/12/06 09:31:07;;;;;;;;;;;19.80;99.90;;;;;;5050748;28;19917;-65
2022/12/06 09:33:34;;;;;;;;;;;19.70;99.90;;;;;;5050329;28;19912;-65
2022/12/06 09:36:04;;;;;;;;;;;19.70;99.90;;;;;;5050437;28;19948;-63
2022/12/06 09:38:34;;;;;;;;;;;19.80;99.90;;;;;;5050092;28;19996;-62
2022/12/06 09:41:19;;;;;;;;;;;19.80;99.90;;;;;;5050848;28;19909;-65
2022/12/06 09:43:48;;;;;;;;;;;19.70;99.90;;;;;;5049576;28;20012;-64
2022/12/06 09:46:21;;;;;;;;;;;19.70;99.90;;;;;;5049869;28;20395;-63
2022/12/06 09:48:56;;;;;;;;;;;19.70;99.90;;;;;;5035027;28;19920;-64
2022/12/06 09:51:42;;;;;;;;;;;19.70;99.90;;;;;;5051019;28;20318;-63
2022/12/06 09:54:18;;;;;;;;;;;19.70;99.90;;;;;;5050239;28;19917;-63
2022/12/06 09:57:03;;;;;;;;;;;19.70;99.90;;;;;;5050996;28;19967;-63
2022/12/06 09:59:42;;;;;;;;;;;19.70;99.90;;;;;;5049898;28;20007;-63
2022/12/06 10:02:26;;;;;;;;;;;19.70;99.90;;;;;;5050197;28;19920;-64
2022/12/06 10:04:53;;;;;;;;;;;19.60;99.90;;;;;;5050979;28;19916;-64
2022/12/06 10:07:38;;;;;;;;;;;19.60;99.90;;;;;;5050214;28;20012;-63
2022/12/06 10:10:07;;;;;;;;;;;19.60;99.90;;;;;;5052033;28;19931;-64
2022/12/06 10:12:46;;;;;;;;;;;19.60;99.90;;;;;;5050665;28;19925;-63
2022/12/06 10:15:18;;;;;;;;;;;19.60;99.90;;;;;;5047427;28;20418;-63
2022/12/06 10:17:45;;;;;;;;;;;19.70;99.90;;;;;;5048264;28;19913;-64
2022/12/06 10:20:38;;;;;;;;;;;19.60;99.90;;;;;;5047599;28;20443;-66
2022/12/06 10:23:04;;;;;;;;;;;19.60;99.90;;;;;;5043296;28;19919;-63
2022/12/06 10:25:40;;;;;;;;;;;19.60;99.90;;;;;;5046939;28;20537;-64
2022/12/06 10:28:06;;;;;;;;;;;19.60;99.90;;;;;;5047119;28;19917;-65
2022/12/06 10:30:36;;;;;;;;;;;19.70;99.90;;;;;;5047945;28;19917;-65
2022/12/06 10:33:04;;;;;;;;;;;19.60;99.90;;;;;;5047163;28;19948;-65
2022/12/06 10:35:42;;;;;;;;;;;19.60;99.90;;;;;;5048000;28;19912;-65
2022/12/06 10:38:08;;;;;;;;;;;19.70;99.90;;;;;;5046973;28;19924;-64
2022/12/06 10:40:38;;;;;;;;;;;19.60;99.90;;;;;;5048034;28;20504;-64
2022/12/06 10:43:10;;;;;;;;;;;19.50;99.90;;;;;;5045612;28;20638;-66
2022/12/06 10:48:31;;;;;;;;;;;19.60;99.90;;;;;;5046285;28;19986;-70
2022/12/06 10:51:02;;;;;;;;;;;19.50;99.90;;;;;;5047629;28;19923;-68
2022/12/06 10:53:32;;;;;;;;;;;19.60;99.90;;;;;;5046686;28;19917;-65
2022/12/06 10:56:05;;;;;;;;;;;19.60;99.90;;;;;;5046949;28;19913;-68
2022/12/06 10:58:37;;;;;;;;;;;19.60;99.90;;;;;;5046853;28;19931;-68
2022/12/06 11:01:24;;;;;;;;;;;19.40;99.90;;;;;;5046604;28;19913;-66
2022/12/06 11:04:01;;;;;;;;;;;19.50;99.90;;;;;;5047332;28;19924;-67
2022/12/06 11:06:31;;;;;;;;;;;19.50;99.90;;;;;;5046571;28;19917;-65
2022/12/06 11:09:08;;;;;;;;;;;19.50;99.90;;;;;;5046941;28;20071;-65
2022/12/06 11:11:35;;;;;;;;;;;19.50;99.90;;;;;;5046621;28;20447;-64
2022/12/06 11:14:05;;;;;;;;;;;19.50;99.90;;;;;;5047252;28;20011;-64
2022/12/06 11:16:35;;;;;;;;;;;19.50;99.90;;;;;;5046456;28;19920;-68
2022/12/06 11:19:14;;;;;;;;;;;19.50;99.90;;;;;;5045851;28;20047;-70
2022/12/06 11:21:59;;;;;;;;;;;19.50;99.90;;;;;;5045641;28;19913;-70
2022/12/06 11:24:32;;;;;;;;;;;19.50;99.90;;;;;;5047148;28;19917;-70
2022/12/06 11:26:59;;;;;;;;;;;19.50;99.90;;;;;;5045901;28;19982;-66
2022/12/06 11:29:26;;;;;;;;;;;19.50;99.90;;;;;;5047099;28;20015;-68
2022/12/06 11:31:55;;;;;;;;;;;19.50;99.90;;;;;;5045968;28;19925;-69
2022/12/06 11:34:23;;;;;;;;;;;19.60;99.90;;;;;;5046940;28;19924;-70
2022/12/06 11:36:51;;;;;;;;;;;19.50;99.90;;;;;;5044915;28;19916;-65
2022/12/06 11:39:18;;;;;;;;;;;19.60;99.90;;;;;;5046711;28;19923;-65
2022/12/06 11:41:46;;;;;;;;;;;19.60;99.90;;;;;;5046775;28;19969;-64
2022/12/06 11:44:17;;;;;;;;;;;19.60;99.90;;;;;;5045916;28;19912;-66
2022/12/06 11:46:45;;;;;;;;;;;19.60;99.90;;;;;;5046062;28;19947;-68
2022/12/06 11:49:15;;;;;;;;;;;19.60;99.90;;;;;;5045357;28;19916;-65
2022/12/06 11:51:42;;;;;;;;;;;19.50;99.90;;;;;;5045907;28;19925;-69
2022/12/06 11:54:27;;;;;;;;;;;19.40;99.90;;;;;;5046689;28;19916;-64
2022/12/06 11:56:56;;;;;;;;;;;19.30;99.90;;;;;;5044964;28;19925;-65
2022/12/06 11:59:24;;;;;;;;;;;19.30;99.90;;;;;;5046643;28;19913;-67
2022/12/06 12:01:53;;;;;;;;;;;19.20;99.90;;;;;;5045443;28;19999;-65
2022/12/06 12:04:30;;;;;;;;;;;19.20;99.90;;;;;;5046398;28;19935;-65
2022/12/06 12:07:02;;;;;;;;;;;19.20;99.90;;;;;;5045436;28;19916;-62
2022/12/06 12:09:30;;;;;;;;;;;19.20;99.90;;;;;;5046363;28;19912;-69
2022/12/06 12:12:03;;;;;;;;;;;19.20;99.90;;;;;;5045159;28;19963;-70
2022/12/06 12:14:39;;;;;;;;;;;19.10;99.90;;;;;;5046170;28;20015;-71
2022/12/06 12:17:25;;;;;;;;;;;19.10;99.90;;;;;;5046012;28;19917;-65
2022/12/06 12:20:04;;;;;;;;;;;19.20;99.90;;;;;;5045057;28;21767;-66
2022/12/06 12:22:41;;;;;;;;;;;19.20;99.90;;;;;;5046450;28;19917;-65
2022/12/06 12:25:22;;;;;;;;;;;19.20;99.90;;;;;;5046490;28;19909;-65
2022/12/06 12:27:50;;;;;;;;;;;19.30;99.90;;;;;;5054564;28;19913;-64
2022/12/06 12:30:23;;;;;;;;;;;19.30;99.90;;;;;;5053656;28;19909;-65
2022/12/06 12:32:52;;;;;;;;;;;19.20;99.90;;;;;;5054119;28;19925;-65
2022/12/06 12:35:24;;;;;;;;;;;19.20;99.90;;;;;;5052952;28;19999;-65
2022/12/06 12:37:55;;;;;;;;;;;19.30;99.90;;;;;;5053551;28;20283;-64
2022/12/06 12:40:24;;;;;;;;;;;19.40;99.90;;;;;;5054501;28;20008;-66
2022/12/06 12:42:58;;;;;;;;;;;19.40;99.90;;;;;;5052993;28;20271;-64
2022/12/06 12:45:28;;;;;;;;;;;19.40;99.90;;;;;;5054433;28;19913;-65
2022/12/06 12:47:56;;;;;;;;;;;19.50;99.90;;;;;;5053544;28;19909;-64
2022/12/06 12:50:23;;;;;;;;;;;19.40;99.90;;;;;;5054281;28;19944;-64
2022/12/06 12:52:50;;;;;;;;;;;19.50;99.90;;;;;;5052809;28;20019;-64
2022/12/06 12:55:18;;;;;;;;;;;19.50;99.90;;;;;;5054101;28;19966;-64
2022/12/06 12:57:55;;;;;;;;;;;19.50;99.90;;;;;;5052906;28;19920;-65
2022/12/06 13:00:24;;;;;;;;;;;19.50;99.90;;;;;;5054161;28;19909;-64
2022/12/06 13:03:01;;;;;;;;;;;19.50;99.90;;;;;;5051244;28;20319;-64
2022/12/06 13:05:32;;;;;;;;;;;19.50;99.90;;;;;;5054033;28;20326;-65
2022/12/06 13:08:18;;;;;;;;;;;19.50;99.90;;;;;;5053034;28;19948;-64
2022/12/06 13:10:46;;;;;;;;;;;19.50;99.90;;;;;;5051394;28;19909;-65
2022/12/06 13:13:19;;;;;;;;;;;19.40;99.90;;;;;;5033469;28;19913;-65
2022/12/06 13:15:47;;;;;;;;;;;19.40;99.90;;;;;;5034207;28;20391;-64
2022/12/06 13:18:19;;;;;;;;;;;19.40;99.90;;;;;;5052446;28;19966;-64
2022/12/06 13:20:47;;;;;;;;;;;19.40;99.90;;;;;;5052691;28;19913;-65
2022/12/06 13:23:14;;;;;;;;;;;19.30;99.90;;;;;;5052813;28;19919;-64
2022/12/06 13:25:46;;;;;;;;;;;19.30;99.90;;;;;;5053618;28;20006;-64
2022/12/06 13:28:16;;;;;;;;;;;19.30;99.90;;;;;;5052617;28;19920;-64
2022/12/06 13:30:44;;;;;;;;;;;19.30;99.90;;;;;;5052341;28;19909;-69
2022/12/06 13:33:22;;;;;;;;;;;19.30;99.90;;;;;;5033696;28;19913;-64
2022/12/06 13:35:52;;;;;;;;;;;19.30;99.90;;;;;;5035852;28;20410;-63
2022/12/06 13:38:19;;;;;;;;;;;19.20;99.90;;;;;;5052165;28;19956;-64
2022/12/06 13:40:50;;;;;;;;;;;19.20;99.90;;;;;;5052471;28;19916;-64
2022/12/06 13:43:39;;;;;;;;;;;19.20;99.90;;;;;;5053223;28;20322;-64
2022/12/06 13:46:06;;;;;;;;;;;19.20;99.90;;;;;;5041494;28;19913;-64
2022/12/06 13:48:33;;;;;;;;;;;19.10;99.90;;;;;;5052425;28;20314;-64
2022/12/06 13:51:10;;;;;;;;;;;19.20;99.90;;;;;;5053015;28;19913;-64
2022/12/06 13:53:57;;;;;;;;;;;19.20;99.90;;;;;;5052365;28;19913;-64
2022/12/06 13:56:28;;;;;;;;;;;19.10;99.90;;;;;;5037766;28;19928;-65
2022/12/06 13:58:55;;;;;;;;;;;19.10;99.90;;;;;;5052876;28;19909;-63
2022/12/06 14:01:40;;;;;;;;;;;19.10;99.90;;;;;;5052474;28;19920;-64
2022/12/06 14:04:28;;;;;;;;;;;19.10;99.90;;;;;;5053197;28;19913;-64
2022/12/06 14:06:55;;;;;;;;;;;19.10;99.90;;;;;;5052033;28;19920;-63
2022/12/06 14:09:23;;;;;;;;;;;19.10;99.90;;;;;;5053118;28;19909;-68
2022/12/06 14:11:49;;;;;;;;;;;19.10;99.90;;;;;;5051740;28;19925;-63
2022/12/06 14:14:17;;;;;;;;;;;19.10;99.90;;;;;;5052105;28;20482;-64
2022/12/06 14:16:49;;;;;;;;;;;19.10;99.90;;;;;;5053099;28;19908;-64
2022/12/06 14:19:18;;;;;;;;;;;19.10;99.90;;;;;;5052134;28;19973;-63
2022/12/06 14:22:01;;;;;;;;;;;19.00;99.90;;;;;;5051463;28;20321;-64
2022/12/06 14:24:32;;;;;;;;;;;19.00;99.90;;;;;;5052891;28;19916;-64
2022/12/06 14:27:03;;;;;;;;;;;19.00;99.90;;;;;;5051563;28;20012;-63
2022/12/06 14:29:31;;;;;;;;;;;19.00;99.90;;;;;;5052832;28;19915;-63
2022/12/06 14:31:58;;;;;;;;;;;19.00;99.90;;;;;;5052077;28;19925;-63
2022/12/06 14:34:29;;;;;;;;;;;19.00;99.90;;;;;;5052916;28;19909;-63
2022/12/06 14:36:57;;;;;;;;;;;19.00;99.90;;;;;;5051633;28;19956;-65
2022/12/06 14:39:25;;;;;;;;;;;19.00;99.90;;;;;;5052907;28;19951;-65
2022/12/06 14:44:39;;;;;;;;;;;18.90;99.90;;;;;;5053240;28;20401;-64
2022/12/06 14:47:06;;;;;;;;;;;18.90;99.90;;;;;;5051678;28;19916;-64
2022/12/06 14:52:20;;;;;;;;;;;18.90;99.90;;;;;;5050867;28;19928;-64
2022/12/06 14:54:48;;;;;;;;;;;18.90;99.90;;;;;;5052524;28;19912;-64
2022/12/06 14:57:20;;;;;;;;;;;18.90;99.90;;;;;;5052879;28;20291;-63
2022/12/06 14:59:51;;;;;;;;;;;18.80;99.90;;;;;;5055316;28;19999;-64
2022/12/06 15:02:25;;;;;;;;;;;18.80;99.90;;;;;;5056206;28;20272;-64